Time;durP1;ratioP1;P1;durP2;ratioP2;P2;SDS_P1;SDS_P2;PMS_P1;PMS_P2;Temp;Humidity;BMP_temperature;BMP_pressure;BME280_temperature;BME280_humidity;BME280_pressure;Samples;Min_cycle;Max_cycle;Signal;HPM_P1;HPM_P2
2022/04/01 00:00:10;;;;;;;5.40;1.20;;;;;;;;;;5073826;28;20097;-72
2022/04/01 00:02:36;;;;;;;3.22;1.23;;;;;;;;;;5091977;28;20546;-71
2022/04/01 00:05:03;;;;;;;1.25;1.13;;;;;;;;;;5073589;28;20063;-71
2022/04/01 00:07:29;;;;;;;1.23;1.02;;;;;;;;;;5098171;28;20032;-71
2022/04/01 00:09:55;;;;;;;1.13;0.93;;;;;;;;;;5113321;28;20024;-71
2022/04/01 00:12:21;;;;;;;1.27;1.10;;;;;;;;;;5093853;28;20511;-71
2022/04/01 00:14:47;;;;;;;1.95;1.17;;;;;;;;;;5098070;28;20044;-72
2022/04/01 00:17:13;;;;;;;3.80;1.20;;;;;;;;;;5092623;28;20036;-71
2022/04/01 00:19:39;;;;;;;4.38;1.08;;;;;;;;;;5092322;28;20024;-73
2022/04/01 00:22:05;;;;;;;0.90;0.90;;;;;;;;;;5099879;28;20442;-71
2022/04/01 00:24:32;;;;;;;1.08;1.02;;;;;;;;;;5094628;28;20032;-71
2022/04/01 00:26:58;;;;;;;1.67;0.90;;;;;;;;;;5092027;28;20028;-72
2022/04/01 00:29:24;;;;;;;1.00;0.90;;;;;;;;;;5091092;28;20036;-72
2022/04/01 00:32:01;;;;;;;2.35;1.00;;;;;;;;;;5090965;28;20563;-72
2022/04/01 00:34:31;;;;;;;1.38;0.90;;;;;;;;;;5091726;28;20051;-72
2022/04/01 00:36:59;;;;;;;1.30;1.00;;;;;;;;;;5090481;28;20492;-72
2022/04/01 00:39:25;;;;;;;1.17;0.90;;;;;;;;;;5091536;28;20062;-72
2022/04/01 00:41:51;;;;;;;1.58;1.02;;;;;;;;;;5090473;28;20036;-72
2022/04/01 00:44:17;;;;;;;1.35;1.10;;;;;;;;;;5091648;28;20024;-73
2022/04/01 00:46:44;;;;;;;1.10;1.00;;;;;;;;;;5091123;28;20088;-72
2022/04/01 00:49:10;;;;;;;0.82;0.80;;;;;;;;;;5091819;28;20016;-72
2022/04/01 00:51:37;;;;;;;0.88;0.80;;;;;;;;;;5090721;28;20040;-72
2022/04/01 00:54:06;;;;;;;1.23;0.90;;;;;;;;;;5091470;28;20046;-72
2022/04/01 00:56:33;;;;;;;2.25;1.00;;;;;;;;;;5090553;28;20035;-72
2022/04/01 00:58:59;;;;;;;1.58;1.20;;;;;;;;;;5091579;28;20032;-71
2022/04/01 01:01:26;;;;;;;0.90;0.80;;;;;;;;;;5090634;28;20576;-72
2022/04/01 01:03:52;;;;;;;1.27;1.10;;;;;;;;;;5091235;28;20385;-72
2022/04/01 01:06:20;;;;;;;1.17;1.00;;;;;;;;;;5090754;28;20073;-73
2022/04/01 01:08:47;;;;;;;0.88;0.82;;;;;;;;;;5090530;28;20476;-72
2022/04/01 01:11:14;;;;;;;0.88;0.85;;;;;;;;;;5089299;28;20036;-73
2022/04/01 01:13:40;;;;;;;0.98;0.80;;;;;;;;;;5085558;28;20020;-73
2022/04/01 01:16:07;;;;;;;0.93;0.77;;;;;;;;;;5070541;28;20102;-71
2022/04/01 01:18:33;;;;;;;1.52;0.80;;;;;;;;;;5070024;28;20074;-71
2022/04/01 01:20:59;;;;;;;0.70;0.70;;;;;;;;;;5070164;28;20326;-72
2022/04/01 01:23:32;;;;;;;1.45;0.90;;;;;;;;;;5086326;28;20046;-72
2022/04/01 01:25:59;;;;;;;0.60;0.60;;;;;;;;;;5090497;28;20055;-72
2022/04/01 01:28:27;;;;;;;0.63;0.63;;;;;;;;;;5090021;28;20039;-72
2022/04/01 01:30:53;;;;;;;0.93;0.70;;;;;;;;;;5090416;28;20553;-72
2022/04/01 01:33:22;;;;;;;0.68;0.60;;;;;;;;;;5090010;28;20024;-72
2022/04/01 01:35:48;;;;;;;0.37;0.37;;;;;;;;;;5090236;28;20036;-72
2022/04/01 01:38:17;;;;;;;4.22;0.95;;;;;;;;;;5089390;28;20722;-72
2022/04/01 01:40:45;;;;;;;3.28;0.70;;;;;;;;;;5089688;28;20129;-72
2022/04/01 01:43:11;;;;;;;0.52;0.50;;;;;;;;;;5070977;28;20030;-72
2022/04/01 01:45:37;;;;;;;1.02;0.77;;;;;;;;;;5089208;28;20103;-72
2022/04/01 01:48:03;;;;;;;0.68;0.60;;;;;;;;;;5089631;28;20089;-71
2022/04/01 01:55:59;;;;;;;0.77;0.60;;;;;;;;;;5110537;28;20047;-72
2022/04/01 01:58:27;;;;;;;0.70;0.70;;;;;;;;;;5109987;28;20477;-72
2022/04/01 02:00:53;;;;;;;0.50;0.50;;;;;;;;;;5110250;28;20085;-72
2022/04/01 02:03:19;;;;;;;0.32;0.32;;;;;;;;;;5109458;28;20373;-72
2022/04/01 02:05:45;;;;;;;0.47;0.47;;;;;;;;;;5110394;28;20035;-71
2022/04/01 02:08:11;;;;;;;0.38;0.38;;;;;;;;;;5108879;28;20055;-72
2022/04/01 02:10:37;;;;;;;0.50;0.50;;;;;;;;;;5109945;28;20035;-72
2022/04/01 02:13:03;;;;;;;0.93;0.50;;;;;;;;;;5109213;28;20103;-72
2022/04/01 02:15:29;;;;;;;0.50;0.50;;;;;;;;;;5089584;28;20281;-72
2022/04/01 02:17:55;;;;;;;2.30;0.60;;;;;;;;;;5089167;28;20035;-72
2022/04/01 02:20:21;;;;;;;0.35;0.35;;;;;;;;;;5084427;28;20024;-72
2022/04/01 02:22:48;;;;;;;0.47;0.47;;;;;;;;;;5074376;28;20066;-71
2022/04/01 02:25:14;;;;;;;1.42;0.38;;;;;;;;;;5110307;28;20055;-72
2022/04/01 02:27:42;;;;;;;0.50;0.50;;;;;;;;;;5109415;28;20055;-72
2022/04/01 02:30:11;;;;;;;0.82;0.40;;;;;;;;;;5109669;28;20028;-72
2022/04/01 02:32:40;;;;;;;0.50;0.50;;;;;;;;;;5109437;28;20099;-71
2022/04/01 02:35:07;;;;;;;0.40;0.40;;;;;;;;;;5110392;28;20027;-72
2022/04/01 02:37:33;;;;;;;0.50;0.50;;;;;;;;;;5108849;28;20464;-72
2022/04/01 02:39:59;;;;;;;0.57;0.47;;;;;;;;;;5079908;28;20017;-72
2022/04/01 02:42:25;;;;;;;0.40;0.40;;;;;;;;;;5079193;28;20062;-72
2022/04/01 02:44:52;;;;;;;0.40;0.40;;;;;;;;;;5089599;28;20475;-72
2022/04/01 02:47:18;;;;;;;0.40;0.40;;;;;;;;;;5089568;28;20025;-72
2022/04/01 02:49:44;;;;;;;0.43;0.43;;;;;;;;;;5089188;28;20036;-72
2022/04/01 02:52:10;;;;;;;0.32;0.30;;;;;;;;;;5072264;28;20028;-71
2022/04/01 02:54:36;;;;;;;0.32;0.32;;;;;;;;;;5091803;28;20032;-72
2022/04/01 02:57:03;;;;;;;0.40;0.40;;;;;;;;;;5074572;28;20028;-72
2022/04/01 02:59:29;;;;;;;0.40;0.40;;;;;;;;;;5072301;28;20458;-72
2022/04/01 03:01:55;;;;;;;0.60;0.38;;;;;;;;;;5072537;28;20036;-72
2022/04/01 03:04:22;;;;;;;0.30;0.30;;;;;;;;;;5071693;28;20458;-72
2022/04/01 03:06:49;;;;;;;0.68;0.43;;;;;;;;;;5072542;28;20061;-72
2022/04/01 03:09:15;;;;;;;0.50;0.50;;;;;;;;;;5096244;28;20036;-72
2022/04/01 03:11:42;;;;;;;0.50;0.50;;;;;;;;;;5112868;28;20396;-71
2022/04/01 03:14:09;;;;;;;0.43;0.43;;;;;;;;;;5103687;28;20031;-72
2022/04/01 03:16:36;;;;;;;0.50;0.40;;;;;;;;;;5092559;28;20077;-72
2022/04/01 03:19:02;;;;;;;0.63;0.47;;;;;;;;;;5092472;28;20028;-72
2022/04/01 03:21:31;;;;;;;0.47;0.47;;;;;;;;;;5092015;28;20085;-72
2022/04/01 03:23:58;;;;;;;0.50;0.50;;;;;;;;;;5100425;28;20379;-72
2022/04/01 03:26:24;;;;;;;0.50;0.50;;;;;;;;;;5113158;28;20027;-71
2022/04/01 03:28:50;;;;;;;0.52;0.40;;;;;;;;;;5112028;28;20027;-72
2022/04/01 03:31:16;;;;;;;0.60;0.60;;;;;;;;;;5078621;28;20025;-75
2022/04/01 03:33:42;;;;;;;0.50;0.50;;;;;;;;;;5071975;28;20039;-72
2022/04/01 03:36:09;;;;;;;0.50;0.50;;;;;;;;;;5071911;28;20021;-71
2022/04/01 03:38:35;;;;;;;0.60;0.60;;;;;;;;;;5083639;28;20054;-72
2022/04/01 03:41:01;;;;;;;2.83;0.75;;;;;;;;;;5112744;28;20031;-72
2022/04/01 03:43:29;;;;;;;1.80;0.70;;;;;;;;;;5111710;28;20055;-72
2022/04/01 03:45:56;;;;;;;0.40;0.40;;;;;;;;;;5106100;28;20466;-72
2022/04/01 03:48:44;;;;;;;0.45;0.45;;;;;;;;;;5091964;28;20381;-72
2022/04/01 03:51:13;;;;;;;0.50;0.50;;;;;;;;;;5092982;28;20016;-72
2022/04/01 03:53:41;;;;;;;1.08;0.50;;;;;;;;;;5095313;28;20073;-72
2022/04/01 03:56:07;;;;;;;0.40;0.40;;;;;;;;;;5112274;28;20028;-71
2022/04/01 03:58:34;;;;;;;1.10;0.80;;;;;;;;;;5112029;28;20019;-71
2022/04/01 04:01:01;;;;;;;1.20;0.50;;;;;;;;;;5112094;28;20139;-72
2022/04/01 04:03:29;;;;;;;0.60;0.60;;;;;;;;;;5111358;28;20279;-72
2022/04/01 04:05:56;;;;;;;1.27;0.50;;;;;;;;;;5112429;28;20016;-72
2022/04/01 04:08:31;;;;;;;0.60;0.60;;;;;;;;;;5110935;28;20051;-72
2022/04/01 04:10:57;;;;;;;0.70;0.60;;;;;;;;;;5093385;28;20298;-72
2022/04/01 04:13:26;;;;;;;0.50;0.50;;;;;;;;;;5109656;28;20023;-72
2022/04/01 04:16:05;;;;;;;3.77;0.50;;;;;;;;;;5091963;28;20024;-71
2022/04/01 04:18:41;;;;;;;0.40;0.40;;;;;;;;;;5083170;28;20027;-72
2022/04/01 04:21:10;;;;;;;0.55;0.50;;;;;;;;;;5091586;28;20023;-72
2022/04/01 04:23:55;;;;;;;0.45;0.45;;;;;;;;;;5091283;28;20481;-72
2022/04/01 04:26:27;;;;;;;0.35;0.35;;;;;;;;;;5112111;28;20028;-71
2022/04/01 04:28:56;;;;;;;0.55;0.55;;;;;;;;;;5111522;28;20035;-71
2022/04/01 04:31:28;;;;;;;3.53;0.65;;;;;;;;;;5111120;28;20094;-72
2022/04/01 04:33:56;;;;;;;1.42;0.55;;;;;;;;;;5111469;28;20469;-71
2022/04/01 04:36:26;;;;;;;1.42;0.70;;;;;;;;;;5110382;28;20027;-72
2022/04/01 04:38:53;;;;;;;0.95;0.80;;;;;;;;;;5094938;28;20032;-72
2022/04/01 04:41:20;;;;;;;1.52;0.70;;;;;;;;;;5082834;28;20043;-72
2022/04/01 04:43:48;;;;;;;0.82;0.70;;;;;;;;;;5091320;28;20035;-72
2022/04/01 04:46:15;;;;;;;1.40;0.70;;;;;;;;;;5091602;28;20101;-74
2022/04/01 04:48:42;;;;;;;0.60;0.60;;;;;;;;;;5090634;28;20462;-74
2022/04/01 04:51:09;;;;;;;2.42;0.90;;;;;;;;;;5090125;28;20077;-75
2022/04/01 04:53:36;;;;;;;1.38;0.75;;;;;;;;;;5090935;28;20028;-74
2022/04/01 04:56:06;;;;;;;0.65;0.65;;;;;;;;;;5091489;28;20063;-74
2022/04/01 04:58:39;;;;;;;1.38;0.90;;;;;;;;;;5111625;28;20597;-75
2022/04/01 05:01:17;;;;;;;0.60;0.60;;;;;;;;;;5093775;28;20522;-71
2022/04/01 05:03:44;;;;;;;1.15;0.77;;;;;;;;;;5112190;28;20046;-72
2022/04/01 05:06:11;;;;;;;0.55;0.55;;;;;;;;;;5112248;28;20035;-71
2022/04/01 05:08:46;;;;;;;0.50;0.50;;;;;;;;;;5112998;28;20023;-71
2022/04/01 05:11:12;;;;;;;1.48;0.63;;;;;;;;;;5090634;28;20027;-70
2022/04/01 05:13:45;;;;;;;0.70;0.63;;;;;;;;;;5090701;28;20024;-72
2022/04/01 05:16:25;;;;;;;1.80;0.70;;;;;;;;;;5091840;28;20028;-71
2022/04/01 05:18:56;;;;;;;1.02;0.55;;;;;;;;;;5074787;28;20111;-71
2022/04/01 05:21:23;;;;;;;;;;;;;;;;;;5093151;28;20032;-72
2022/04/01 05:24:01;;;;;;;0.82;0.60;;;;;;;;;;5093012;28;20458;-72
2022/04/01 05:26:38;;;;;;;0.82;0.70;;;;;;;;;;5092854;28;20046;-72
2022/04/01 05:29:07;;;;;;;1.20;0.90;;;;;;;;;;5092153;28;20461;-72
2022/04/01 05:31:45;;;;;;;0.70;0.70;;;;;;;;;;5091689;28;20600;-72
2022/04/01 05:34:26;;;;;;;0.57;0.50;;;;;;;;;;5092138;28;20023;-72
2022/04/01 05:36:53;;;;;;;0.65;0.63;;;;;;;;;;5090255;28;20031;-72
2022/04/01 05:39:19;;;;;;;0.60;0.60;;;;;;;;;;5090786;28;20020;-71
2022/04/01 05:41:46;;;;;;;0.50;0.50;;;;;;;;;;5109757;28;20024;-71
2022/04/01 05:44:13;;;;;;;0.50;0.50;;;;;;;;;;5110058;28;20028;-72
2022/04/01 05:46:40;;;;;;;1.55;0.73;;;;;;;;;;5097750;28;20028;-71
2022/04/01 05:49:06;;;;;;;1.60;0.82;;;;;;;;;;5089432;28;20027;-72
2022/04/01 05:51:33;;;;;;;0.85;0.70;;;;;;;;;;5088925;28;20143;-71
2022/04/01 05:54:00;;;;;;;0.50;0.50;;;;;;;;;;5089419;28;20030;-72
2022/04/01 05:56:28;;;;;;;2.70;1.00;;;;;;;;;;5089178;28;20094;-72
2022/04/01 05:58:54;;;;;;;0.70;0.70;;;;;;;;;;5050960;28;20021;-72
2022/04/01 06:01:20;;;;;;;1.95;1.00;;;;;;;;;;5068765;28;20032;-72
2022/04/01 06:03:49;;;;;;;1.60;0.95;;;;;;;;;;5069055;28;20035;-72
2022/04/01 06:06:24;;;;;;;2.42;0.68;;;;;;;;;;5068782;28;20028;-72
2022/04/01 06:08:57;;;;;;;0.80;0.70;;;;;;;;;;5069188;28;20016;-72
2022/04/01 06:11:28;;;;;;;0.70;0.70;;;;;;;;;;5102794;28;20532;-72
2022/04/01 06:14:04;;;;;;;0.60;0.60;;;;;;;;;;5103083;28;20024;-72
2022/04/01 06:16:34;;;;;;;0.60;0.60;;;;;;;;;;5089175;28;20027;-72
2022/04/01 06:19:00;;;;;;;0.50;0.50;;;;;;;;;;5089048;28;20032;-72
2022/04/01 06:21:27;;;;;;;2.95;0.60;;;;;;;;;;5070512;28;20477;-72
2022/04/01 06:23:53;;;;;;;1.25;0.65;;;;;;;;;;5088725;28;20031;-72
2022/04/01 06:26:19;;;;;;;0.68;0.68;;;;;;;;;;5105685;28;20031;-72
2022/04/01 06:29:09;;;;;;;0.60;0.60;;;;;;;;;;5113567;28;20081;-73
2022/04/01 06:31:36;;;;;;;0.70;0.70;;;;;;;;;;5094695;28;20027;-72
2022/04/01 06:34:14;;;;;;;0.80;0.70;;;;;;;;;;5113458;28;20031;-72
2022/04/01 06:36:43;;;;;;;0.90;0.60;;;;;;;;;;5113637;28;20031;-72
2022/04/01 06:39:10;;;;;;;0.90;0.60;;;;;;;;;;5113967;28;20379;-71
2022/04/01 06:41:57;;;;;;;1.10;0.70;;;;;;;;;;5111260;28;20031;-73
2022/04/01 06:44:23;;;;;;;1.27;0.70;;;;;;;;;;5095737;28;20020;-72
2022/04/01 06:46:51;;;;;;;0.60;0.60;;;;;;;;;;5100271;28;20028;-72
2022/04/01 06:49:17;;;;;;;0.60;0.45;;;;;;;;;;5074617;28;20039;-72
2022/04/01 06:51:43;;;;;;;0.60;0.60;;;;;;;;;;5092761;28;20020;-72
2022/04/01 07:00:18;;;;;;;0.50;0.50;;;;;;;;;;5013384;28;20073;-71
2022/04/01 07:02:45;;;;;;;0.70;0.70;;;;;;;;;;5008748;28;20069;-71
2022/04/01 07:05:11;;;;;;;0.40;0.40;;;;;;;;;;5009592;28;20310;-72
2022/04/01 07:07:42;;;;;;;0.40;0.40;;;;;;;;;;5009593;28;20137;-71
2022/04/01 07:10:09;;;;;;;2.38;0.47;;;;;;;;;;5011587;28;20034;-72
2022/04/01 07:15:41;;;;;;;0.57;0.57;;;;;;;;;;4992990;28;20118;-71
2022/04/01 07:18:12;;;;;;;0.50;0.50;;;;;;;;;;5029627;28;20296;-72
2022/04/01 07:20:38;;;;;;;0.40;0.40;;;;;;;;;;5029289;28;20049;-72
2022/04/01 07:23:04;;;;;;;0.95;0.52;;;;;;;;;;5029005;28;20596;-71
2022/04/01 07:25:30;;;;;;;0.45;0.40;;;;;;;;;;5027497;28;20528;-72
2022/04/01 07:27:56;;;;;;;0.50;0.43;;;;;;;;;;5029729;28;20041;-72
2022/04/01 07:30:23;;;;;;;0.60;0.60;;;;;;;;;;5023294;28;20040;-71
2022/04/01 07:32:54;;;;;;;0.60;0.60;;;;;;;;;;5008694;28;20044;-71
2022/04/01 07:35:20;;;;;;;0.60;0.60;;;;;;;;;;5053824;28;20024;-71
2022/04/01 07:37:47;;;;;;;0.77;0.77;;;;;;;;;;5070746;28;20109;-72
2022/04/01 07:40:13;;;;;;;0.75;0.60;;;;;;;;;;5072079;28;20024;-72
2022/04/01 07:42:40;;;;;;;0.90;0.80;;;;;;;;;;5071189;28;20438;-72
2022/04/01 07:45:06;;;;;;;0.80;0.70;;;;;;;;;;5053717;28;20032;-71
2022/04/01 07:47:32;;;;;;;0.80;0.47;;;;;;;;;;5091264;28;20024;-71
2022/04/01 07:50:00;;;;;;;1.30;0.70;;;;;;;;;;5074528;28;20055;-72
2022/04/01 07:52:27;;;;;;;1.95;0.50;;;;;;;;;;5091019;28;20016;-72
2022/04/01 07:54:53;;;;;;;0.38;0.38;;;;;;;;;;5091629;28;20039;-72
2022/04/01 07:57:20;;;;;;;0.77;0.70;;;;;;;;;;5108415;28;20036;-72
2022/04/01 07:59:47;;;;;;;0.45;0.45;;;;;;;;;;5111494;28;20056;-71
2022/04/01 08:02:13;;;;;;;0.93;0.93;;;;;;;;;;5110992;28;20164;-71
2022/04/01 08:04:39;;;;;;;1.05;0.50;;;;;;;;;;5105325;28;20389;-71
2022/04/01 08:07:06;;;;;;;0.55;0.40;;;;;;;;;;5071165;28;20466;-72
2022/04/01 08:09:33;;;;;;;1.08;0.60;;;;;;;;;;5070666;28;20059;-71
2022/04/01 08:12:01;;;;;;;0.50;0.50;;;;;;;;;;5096573;28;20487;-71
2022/04/01 08:14:27;;;;;;;0.73;0.60;;;;;;;;;;5099487;28;20111;-72
2022/04/01 08:16:53;;;;;;;0.52;0.52;;;;;;;;;;5091696;28;20054;-71
2022/04/01 08:19:19;;;;;;;0.85;0.50;;;;;;;;;;5091464;28;20027;-72
2022/04/01 08:21:45;;;;;;;0.60;0.50;;;;;;;;;;5072347;28;20138;-72
2022/04/01 08:24:12;;;;;;;0.85;0.85;;;;;;;;;;5091522;28;20016;-72
2022/04/01 08:26:39;;;;;;;0.85;0.70;;;;;;;;;;5091357;28;20039;-71
2022/04/01 08:29:05;;;;;;;4.82;0.60;;;;;;;;;;5091296;28;20443;-71
2022/04/01 08:31:33;;;;;;;0.55;0.55;;;;;;;;;;5089769;28;20028;-72
2022/04/01 08:33:59;;;;;;;0.50;0.50;;;;;;;;;;5091224;28;20038;-71
2022/04/01 08:36:26;;;;;;;1.52;0.60;;;;;;;;;;5090642;28;20024;-71
2022/04/01 08:38:52;;;;;;;0.75;0.60;;;;;;;;;;5090276;28;20551;-73
2022/04/01 08:41:19;;;;;;;0.73;0.60;;;;;;;;;;5087590;28;20040;-72
2022/04/01 08:43:46;;;;;;;0.60;0.60;;;;;;;;;;5052487;28;20019;-71
2022/04/01 08:46:12;;;;;;;0.77;0.60;;;;;;;;;;5079011;28;20107;-71
2022/04/01 08:48:38;;;;;;;1.65;0.80;;;;;;;;;;5090779;28;20022;-71
2022/04/01 08:51:04;;;;;;;1.23;0.70;;;;;;;;;;5090520;28;20032;-72
2022/04/01 08:53:41;;;;;;;0.70;0.70;;;;;;;;;;5090064;28;20107;-71
2022/04/01 08:56:08;;;;;;;0.75;0.75;;;;;;;;;;5093185;28;20114;-71
2022/04/01 08:58:35;;;;;;;0.60;0.60;;;;;;;;;;5111162;28;20020;-71
2022/04/01 09:01:02;;;;;;;3.03;1.00;;;;;;;;;;5110677;28;20066;-71
2022/04/01 09:03:28;;;;;;;0.45;0.45;;;;;;;;;;5110004;28;20042;-71
2022/04/01 09:05:59;;;;;;;0.50;0.50;;;;;;;;;;5110895;28;20019;-71
2022/04/01 09:08:27;;;;;;;0.75;0.75;;;;;;;;;;5109158;28;20088;-71
2022/04/01 09:10:57;;;;;;;0.75;0.65;;;;;;;;;;5089412;28;20040;-72
2022/04/01 09:13:24;;;;;;;0.90;0.75;;;;;;;;;;5109908;28;20051;-71
2022/04/01 09:15:50;;;;;;;0.88;0.80;;;;;;;;;;5072980;28;20584;-72
2022/04/01 09:18:34;;;;;;;0.63;0.63;;;;;;;;;;5070033;28;20127;-71
2022/04/01 09:21:00;;;;;;;0.75;0.75;;;;;;;;;;5069729;28;20530;-71
2022/04/01 09:23:26;;;;;;;0.57;0.57;;;;;;;;;;5069779;28;20112;-72
2022/04/01 09:25:53;;;;;;;0.60;0.60;;;;;;;;;;5070070;28;20026;-72
2022/04/01 09:28:29;;;;;;;0.70;0.60;;;;;;;;;;5088860;28;20115;-72
2022/04/01 09:31:06;;;;;;;0.95;0.90;;;;;;;;;;5071881;28;20066;-72
2022/04/01 09:33:47;;;;;;;0.98;0.80;;;;;;;;;;5071680;28;20498;-72
2022/04/01 09:36:14;;;;;;;0.70;0.70;;;;;;;;;;5089815;28;20053;-72
2022/04/01 09:38:51;;;;;;;1.42;0.88;;;;;;;;;;5089761;28;20024;-72
2022/04/01 09:41:19;;;;;;;0.75;0.75;;;;;;;;;;5089191;28;20077;-72
2022/04/01 09:43:45;;;;;;;1.27;0.70;;;;;;;;;;5069740;28;20090;-71
2022/04/01 09:46:24;;;;;;;0.60;0.60;;;;;;;;;;5077494;28;20031;-71
2022/04/01 09:48:50;;;;;;;1.15;0.90;;;;;;;;;;5088466;28;20021;-72
2022/04/01 09:51:16;;;;;;;0.80;0.80;;;;;;;;;;5050328;28;20028;-72
2022/04/01 09:53:51;;;;;;;0.70;0.70;;;;;;;;;;5069313;28;20040;-71
2022/04/01 09:56:17;;;;;;;0.52;0.52;;;;;;;;;;5069486;28;20020;-72
2022/04/01 09:58:43;;;;;;;0.70;0.70;;;;;;;;;;5109198;28;20023;-72
2022/04/01 10:01:10;;;;;;;0.70;0.57;;;;;;;;;;5109210;28;20027;-72
2022/04/01 10:03:36;;;;;;;2.17;0.90;;;;;;;;;;5110413;28;20047;-72
2022/04/01 10:06:02;;;;;;;1.42;0.50;;;;;;;;;;5109923;28;20024;-72
2022/04/01 10:08:32;;;;;;;0.60;0.50;;;;;;;;;;5107041;28;20020;-73
2022/04/01 10:10:58;;;;;;;0.63;0.63;;;;;;;;;;5089506;28;20024;-74
2022/04/01 10:13:29;;;;;;;0.75;0.60;;;;;;;;;;5102223;28;20114;-74
2022/04/01 10:15:57;;;;;;;0.40;0.40;;;;;;;;;;5089295;28;20028;-72
2022/04/01 10:18:24;;;;;;;1.00;0.90;;;;;;;;;;5088635;28;20051;-72
2022/04/01 10:20:53;;;;;;;1.13;0.70;;;;;;;;;;5089060;28;20410;-72
2022/04/01 10:23:21;;;;;;;0.63;0.63;;;;;;;;;;5088515;28;20040;-72
2022/04/01 10:26:05;;;;;;;1.38;0.75;;;;;;;;;;5089119;28;20028;-72
2022/04/01 15:33:18;;;;;;;3.13;2.20;;;;;;;;;;5063613;28;20050;-79
2022/04/01 15:35:46;;;;;;;2.30;2.10;;;;;;;;;;5045413;28;20043;-78
2022/04/01 15:38:14;;;;;;;2.75;2.28;;;;;;;;;;5041673;28;20244;-78
2022/04/01 15:40:40;;;;;;;3.35;2.58;;;;;;;;;;5042138;28;20021;-78
2022/04/01 15:43:07;;;;;;;2.63;1.92;;;;;;;;;;5044110;28;20050;-79
2022/04/01 15:45:38;;;;;;;3.10;2.38;;;;;;;;;;5060097;28;20112;-78
2022/04/01 15:48:08;;;;;;;3.40;2.70;;;;;;;;;;5033598;28;20025;-79
2022/04/01 15:50:34;;;;;;;2.72;2.30;;;;;;;;;;5057922;28;20033;-81
2022/04/01 15:53:01;;;;;;;4.63;2.63;;;;;;;;;;5052528;28;20029;-80
2022/04/01 15:55:27;;;;;;;4.75;2.67;;;;;;;;;;5043451;28;20021;-80
2022/04/01 15:57:55;;;;;;;3.47;2.85;;;;;;;;;;5047579;28;20119;-81
2022/04/01 16:00:21;;;;;;;7.45;4.28;;;;;;;;;;5061455;28;20500;-80
2022/04/01 16:03:07;;;;;;;3.88;3.03;;;;;;;;;;5033960;28;20580;-81
2022/04/01 16:05:36;;;;;;;3.55;2.63;;;;;;;;;;5045459;28;20558;-80
2022/04/01 16:08:02;;;;;;;10.02;4.93;;;;;;;;;;5044982;28;20115;-80
2022/04/01 16:10:29;;;;;;;4.57;3.15;;;;;;;;;;5049605;28;20112;-80
2022/04/01 16:13:01;;;;;;;5.38;3.47;;;;;;;;;;5053064;28;20374;-80
2022/04/01 16:15:27;;;;;;;3.65;2.92;;;;;;;;;;5083893;28;20043;-80
2022/04/01 16:17:57;;;;;;;5.05;3.10;;;;;;;;;;5041533;28;20025;-80
2022/04/01 16:20:23;;;;;;;5.03;3.40;;;;;;;;;;5032669;28;20028;-79
2022/04/01 16:22:50;;;;;;;4.88;3.20;;;;;;;;;;5051960;28;20154;-79
2022/04/01 16:25:16;;;;;;;3.30;2.50;;;;;;;;;;5062653;28;20495;-81
2022/04/01 16:27:42;;;;;;;4.32;3.08;;;;;;;;;;5047293;28;20020;-79
2022/04/01 16:30:08;;;;;;;3.70;2.55;;;;;;;;;;5067722;28;20055;-79
2022/04/01 16:32:35;;;;;;;3.53;2.90;;;;;;;;;;5070961;28;20024;-79
2022/04/01 16:35:01;;;;;;;3.40;2.92;;;;;;;;;;5070909;28;20051;-79
2022/04/01 16:37:27;;;;;;;4.40;3.28;;;;;;;;;;5053557;28;20083;-80
2022/04/01 16:39:53;;;;;;;3.65;3.00;;;;;;;;;;5070465;28;20024;-80
2022/04/01 16:42:20;;;;;;;3.00;2.60;;;;;;;;;;5050390;28;20037;-79
2022/04/01 16:44:46;;;;;;;3.15;2.60;;;;;;;;;;5068588;28;20031;-79
2022/04/01 16:49:49;;;;;;;3.78;3.15;;;;;;;;;;5124302;22;20059;-71
2022/04/01 16:52:16;;;;;;;3.60;3.00;;;;;;;;;;5092505;28;20122;-71
2022/04/01 16:54:42;;;;;;;7.80;2.95;;;;;;;;;;5112119;28;20027;-71
2022/04/01 16:57:12;;;;;;;3.97;2.97;;;;;;;;;;5111069;28;20062;-71
2022/04/01 16:59:38;;;;;;;4.18;3.30;;;;;;;;;;5111546;28;20020;-71
2022/04/01 17:02:06;;;;;;;8.10;3.47;;;;;;;;;;5101889;28;20036;-71
2022/04/01 17:04:32;;;;;;;5.38;3.85;;;;;;;;;;5123870;27;20410;-72
2022/04/01 17:12:49;;;;;;;4.82;3.60;;;;;;;;;;5131491;27;20037;-72
2022/04/01 17:15:15;;;;;;;6.00;3.83;;;;;;;;;;5113196;27;20468;-71
2022/04/01 17:17:41;;;;;;;4.60;3.83;;;;;;;;;;5092511;28;20452;-72
2022/04/01 17:20:09;;;;;;;5.30;3.97;;;;;;;;;;5126646;27;20033;-71
2022/04/01 17:22:36;;;;;;;4.50;3.63;;;;;;;;;;5111646;27;20057;-71
2022/04/01 17:25:03;;;;;;;4.55;3.88;;;;;;;;;;5110624;28;20020;-71
2022/04/01 17:27:29;;;;;;;4.50;3.30;;;;;;;;;;5110912;28;20108;-71
2022/04/01 17:29:56;;;;;;;5.78;3.80;;;;;;;;;;5111346;28;20484;-71
2022/04/01 17:32:23;;;;;;;4.85;4.22;;;;;;;;;;5110195;28;20027;-72
2022/04/01 17:34:53;;;;;;;6.20;4.00;;;;;;;;;;5124186;27;20535;-72
2022/04/01 17:37:19;;;;;;;;;;;;;;;;;;5132381;27;20030;-71
2022/04/01 17:39:48;;;;;;;4.72;3.15;;;;;;;;;;5132076;27;19907;-71
2022/04/01 17:42:14;;;;;;;5.22;3.78;;;;;;;;;;5131468;27;20019;-71
2022/04/01 17:44:42;;;;;;;4.80;4.30;;;;;;;;;;5132136;27;20031;-71
2022/04/01 17:47:09;;;;;;;5.28;4.18;;;;;;;;;;5097101;28;20024;-72
2022/04/01 17:49:35;;;;;;;6.13;4.47;;;;;;;;;;5098816;28;20501;-71
2022/04/01 17:52:02;;;;;;;6.63;4.82;;;;;;;;;;5091634;28;20021;-74
2022/04/01 17:54:29;;;;;;;5.32;4.40;;;;;;;;;;5090943;28;20032;-74
2022/04/01 17:56:56;;;;;;;7.38;4.97;;;;;;;;;;5090657;28;20397;-74
2022/04/01 17:59:24;;;;;;;5.97;4.20;;;;;;;;;;5072222;28;20024;-72
2022/04/01 18:01:54;;;;;;;6.13;4.38;;;;;;;;;;5071991;28;20126;-71
2022/04/01 18:04:20;;;;;;;;;;;;;;;;;;5099614;28;20031;-71
2022/04/01 18:06:48;;;;;;;8.00;5.18;;;;;;;;;;5111317;28;19908;-71
2022/04/01 18:09:15;;;;;;;6.82;4.85;;;;;;;;;;5092563;28;20072;-71
2022/04/01 18:11:42;;;;;;;8.30;6.07;;;;;;;;;;5092225;28;20016;-71
2022/04/01 18:14:09;;;;;;;6.95;5.63;;;;;;;;;;5110454;28;20027;-71
2022/04/01 18:16:35;;;;;;;6.63;4.30;;;;;;;;;;5111161;28;20072;-72
2022/04/01 18:19:01;;;;;;;6.85;4.63;;;;;;;;;;5092267;28;20027;-71
2022/04/01 18:21:28;;;;;;;6.38;4.82;;;;;;;;;;5110121;28;20500;-72
2022/04/01 18:23:54;;;;;;;6.72;5.20;;;;;;;;;;5115220;28;20350;-72
2022/04/01 18:26:27;;;;;;;7.07;4.72;;;;;;;;;;5095340;28;20028;-71
2022/04/01 18:29:00;;;;;;;7.65;5.45;;;;;;;;;;5096366;28;20028;-72
2022/04/01 18:31:33;;;;;;;7.03;5.47;;;;;;;;;;5115898;28;20502;-71
2022/04/01 18:34:03;;;;;;;8.02;5.47;;;;;;;;;;5099235;27;20046;-71
2022/04/01 18:36:29;;;;;;;9.00;5.07;;;;;;;;;;5117540;27;20019;-72
2022/04/01 18:38:55;;;;;;;7.22;5.32;;;;;;;;;;5117277;27;20031;-71
2022/04/01 18:41:24;;;;;;;6.25;5.13;;;;;;;;;;5116568;27;20068;-72
2022/04/01 18:43:52;;;;;;;7.75;5.22;;;;;;;;;;5117111;27;20114;-71
2022/04/01 18:46:22;;;;;;;6.72;5.10;;;;;;;;;;5126522;27;20050;-71
2022/04/01 18:48:49;;;;;;;6.57;4.73;;;;;;;;;;5114719;28;20027;-71
2022/04/01 18:51:15;;;;;;;7.35;4.82;;;;;;;;;;5097284;28;20163;-71
2022/04/01 18:53:42;;;;;;;7.53;5.78;;;;;;;;;;5113349;28;20544;-71
2022/04/01 18:56:08;;;;;;;7.53;5.30;;;;;;;;;;5114717;28;20064;-72
2022/04/01 18:58:34;;;;;;;7.20;5.40;;;;;;;;;;5096495;28;20070;-72
2022/04/01 19:01:03;;;;;;;7.35;5.22;;;;;;;;;;5115253;28;20023;-72
2022/04/01 19:03:33;;;;;;;6.30;4.60;;;;;;;;;;5114152;28;20080;-72
2022/04/01 19:06:21;;;;;;;7.03;5.15;;;;;;;;;;5111763;27;20027;-73
2022/04/01 19:08:49;;;;;;;6.68;4.65;;;;;;;;;;5116995;27;20061;-72
2022/04/01 19:11:15;;;;;;;6.53;4.85;;;;;;;;;;5117293;27;20023;-72
2022/04/01 19:13:42;;;;;;;9.77;5.90;;;;;;;;;;5117042;27;20080;-72
2022/04/01 19:16:18;;;;;;;6.47;5.07;;;;;;;;;;5135396;27;20106;-72
2022/04/01 19:18:50;;;;;;;6.72;5.18;;;;;;;;;;5117833;27;20023;-71
2022/04/01 19:21:20;;;;;;;7.72;5.30;;;;;;;;;;5115906;27;20027;-76
2022/04/01 19:23:47;;;;;;;7.78;5.68;;;;;;;;;;5116290;27;20556;-72
2022/04/01 19:26:14;;;;;;;9.02;5.57;;;;;;;;;;5116847;27;20045;-72
2022/04/01 19:28:43;;;;;;;6.88;5.05;;;;;;;;;;5135153;27;20027;-72
2022/04/01 20:20:46;;;;;;;7.60;5.22;;;;;;;;;;5116907;27;20388;-72
